Time;durP1;ratioP1;P1;durP2;ratioP2;P2;SDS_P1;SDS_P2;PMS_P1;PMS_P2;Temp;Humidity;BMP_temperature;BMP_pressure;BME280_temperature;BME280_humidity;BME280_pressure;Samples;Min_cycle;Max_cycle;Signal;HPM_P1;HPM_P2
2021/03/02 00:00:05;;;;;;;3.40;1.70;;;;;;;17.80;52.54;102142.06;5032987;28;20075;-57
2021/03/02 00:02:31;;;;;;;4.63;1.90;;;;;;;17.79;52.45;102153.09;5032836;28;20034;-54
2021/03/02 00:04:57;;;;;;;4.05;2.00;;;;;;;17.76;52.70;102148.06;5032938;28;20124;-55
2021/03/02 00:07:22;;;;;;;1.63;1.50;;;;;;;17.73;52.64;102146.56;5033193;28;20067;-55
2021/03/02 00:09:48;;;;;;;3.67;2.00;;;;;;;17.70;52.49;102146.94;5033387;28;20025;-54
2021/03/02 00:12:14;;;;;;;4.43;1.88;;;;;;;17.63;52.69;102146.88;5032838;28;20025;-57
2021/03/02 00:14:39;;;;;;;3.22;1.65;;;;;;;17.63;52.84;102146.03;5033222;28;20029;-57
2021/03/02 00:17:11;;;;;;;2.20;2.00;;;;;;;17.58;52.85;102141.19;5032799;28;20033;-55
2021/03/02 00:19:43;;;;;;;4.88;2.05;;;;;;;17.53;52.87;102135.50;5032890;28;20033;-58
2021/03/02 00:22:22;;;;;;;2.72;1.48;;;;;;;17.51;52.37;102132.13;5032792;28;20029;-54
2021/03/02 00:24:50;;;;;;;3.28;1.80;;;;;;;17.49;52.53;102119.75;5033277;28;20044;-57
2021/03/02 00:27:15;;;;;;;3.47;1.55;;;;;;;17.45;52.75;102122.88;5032684;28;20021;-57
2021/03/02 00:29:41;;;;;;;1.95;1.50;;;;;;;17.41;52.68;102120.75;5032458;28;20492;-59
2021/03/02 00:32:08;;;;;;;3.58;1.67;;;;;;;17.44;52.34;102123.88;5032638;28;20052;-58
2021/03/02 00:34:33;;;;;;;4.22;1.70;;;;;;;17.41;52.23;102118.88;5032558;28;20100;-57
2021/03/02 00:36:59;;;;;;;5.72;1.65;;;;;;;17.41;51.85;102128.88;5032774;28;20109;-58
2021/03/02 00:39:24;;;;;;;3.63;1.63;;;;;;;17.39;51.89;102122.78;5032369;28;20044;-58
2021/03/02 00:41:50;;;;;;;2.17;1.50;;;;;;;17.35;51.08;102127.78;5032306;28;20099;-57
2021/03/02 00:44:16;;;;;;;2.25;1.48;;;;;;;17.33;51.00;102118.13;5032451;28;20021;-57
2021/03/02 00:46:41;;;;;;;3.38;2.08;;;;;;;17.28;50.83;102115.97;5030514;28;20036;-57
2021/03/02 00:49:07;;;;;;;4.30;2.25;;;;;;;17.27;50.90;102121.63;5014189;28;20065;-55
2021/03/02 00:51:32;;;;;;;2.78;1.55;;;;;;;17.28;51.60;102132.28;5030827;28;20464;-55
2021/03/02 00:53:58;;;;;;;2.15;1.58;;;;;;;17.23;52.05;102129.31;5015383;28;20080;-55
2021/03/02 00:56:24;;;;;;;2.33;1.55;;;;;;;17.21;51.14;102133.25;5012405;28;20033;-56
2021/03/02 00:58:49;;;;;;;2.67;1.80;;;;;;;17.18;51.58;102134.47;5025195;28;20044;-55
2021/03/02 01:01:15;;;;;;;2.90;2.20;;;;;;;17.15;50.76;102130.25;5030758;28;20387;-54
2021/03/02 01:03:40;;;;;;;3.72;1.88;;;;;;;17.14;50.81;102130.44;5031117;28;20052;-56
2021/03/02 01:06:06;;;;;;;3.33;2.05;;;;;;;17.10;50.76;102129.13;5029051;28;20400;-56
2021/03/02 01:08:31;;;;;;;3.35;2.00;;;;;;;17.08;50.78;102128.50;5010651;28;20280;-58
2021/03/02 01:10:57;;;;;;;3.13;1.90;;;;;;;17.05;50.62;102120.72;5031951;28;20491;-57
2021/03/02 01:13:23;;;;;;;3.65;2.03;;;;;;;17.04;50.80;102128.03;5032031;28;20029;-56
2021/03/02 01:15:48;;;;;;;3.85;2.15;;;;;;;17.02;50.71;102130.09;5030797;28;20131;-56
2021/03/02 01:18:14;;;;;;;3.22;2.05;;;;;;;17.00;50.89;102134.84;5025219;28;20044;-55
2021/03/02 01:20:39;;;;;;;3.28;2.47;;;;;;;16.95;51.67;102126.47;5014240;28;20092;-58
2021/03/02 01:23:05;;;;;;;3.60;1.75;;;;;;;16.95;50.81;102129.19;5026124;28;20465;-54
2021/03/02 01:25:31;;;;;;;3.83;1.70;;;;;;;16.95;50.60;102128.31;5015467;28;20028;-52
2021/03/02 01:27:57;;;;;;;2.67;1.60;;;;;;;16.92;50.50;102121.41;5031261;28;20079;-58
2021/03/02 01:30:23;;;;;;;3.60;1.92;;;;;;;16.87;51.15;102132.00;5031917;28;20030;-57
2021/03/02 01:32:49;;;;;;;3.47;1.60;;;;;;;16.84;50.94;102127.78;5029386;28;20484;-57
2021/03/02 01:35:14;;;;;;;2.17;1.90;;;;;;;16.82;50.64;102121.69;5031504;28;20045;-57
2021/03/02 01:37:40;;;;;;;2.35;1.80;;;;;;;16.80;50.61;102123.75;5030478;28;20026;-57
2021/03/02 01:40:12;;;;;;;2.83;1.70;;;;;;;16.79;50.68;102123.97;5031626;28;20048;-57
2021/03/02 01:42:38;;;;;;;4.15;2.00;;;;;;;16.74;50.53;102116.38;5031259;28;20025;-58
2021/03/02 01:45:07;;;;;;;2.55;1.85;;;;;;;16.73;50.63;102114.72;5032141;28;20147;-53
2021/03/02 01:47:32;;;;;;;1.80;1.40;;;;;;;16.67;51.42;102118.97;5030878;28;20517;-57
2021/03/02 01:49:58;;;;;;;2.50;1.75;;;;;;;16.67;50.82;102123.56;5030492;28;20039;-58
2021/03/02 01:52:23;;;;;;;4.13;2.10;;;;;;;16.66;50.73;102117.28;5028938;28;20128;-53
2021/03/02 01:54:49;;;;;;;4.40;2.08;;;;;;;16.63;50.85;102117.66;5031251;28;20033;-54
2021/03/02 01:57:17;;;;;;;1.92;1.50;;;;;;;16.60;50.73;102109.88;5030913;28;20037;-58
2021/03/02 01:59:43;;;;;;;2.15;1.67;;;;;;;16.57;50.77;102112.16;5031640;28;20045;-56
2021/03/02 02:02:08;;;;;;;2.10;1.80;;;;;;;16.54;50.58;102117.94;5030853;28;20091;-52
2021/03/02 02:04:38;;;;;;;2.40;1.88;;;;;;;16.52;50.65;102120.00;5030774;28;20041;-54
2021/03/02 02:07:09;;;;;;;2.70;1.55;;;;;;;16.50;50.73;102119.34;5031140;28;20108;-56
2021/03/02 02:09:34;;;;;;;;;;;;;;;16.58;50.47;102119.25;5031496;28;20032;-57
2021/03/02 02:12:11;;;;;;;2.17;1.85;;;;;;;16.52;50.40;102114.59;5030731;28;20356;-55
2021/03/02 02:14:56;;;;;;;3.22;1.77;;;;;;;16.47;50.45;102107.00;5031241;28;20140;-58
2021/03/02 02:17:24;;;;;;;2.10;1.80;;;;;;;16.42;50.56;102106.72;5029290;28;20442;-58
2021/03/02 02:19:52;;;;;;;2.72;2.10;;;;;;;16.38;50.54;102105.41;5030764;28;20108;-57
2021/03/02 02:22:32;;;;;;;2.55;1.70;;;;;;;16.38;50.64;102091.84;5031049;28;20029;-55
2021/03/02 02:25:17;;;;;;;2.27;1.70;;;;;;;16.38;50.33;102095.41;5031122;28;20483;-55
2021/03/02 02:27:43;;;;;;;3.42;2.20;;;;;;;16.32;50.45;102098.00;5030678;28;20587;-57
2021/03/02 02:30:10;;;;;;;2.20;1.50;;;;;;;16.28;50.49;102099.44;5031327;28;20104;-58
2021/03/02 02:32:36;;;;;;;2.40;1.83;;;;;;;16.28;50.70;102102.16;5030751;28;20048;-55
2021/03/02 02:35:03;;;;;;;2.90;1.88;;;;;;;16.24;50.54;102095.41;5030938;28;20022;-55
2021/03/02 02:37:28;;;;;;;3.30;1.92;;;;;;;16.23;50.71;102094.56;5031088;28;20053;-56
2021/03/02 02:39:54;;;;;;;2.45;2.20;;;;;;;16.20;50.68;102094.09;5030665;28;20499;-55
2021/03/02 02:42:20;;;;;;;2.40;1.65;;;;;;;16.18;50.53;102091.56;5026553;28;20034;-53
2021/03/02 02:44:47;;;;;;;1.90;1.63;;;;;;;16.16;50.48;102085.47;5011228;28;20042;-56
2021/03/02 02:47:12;;;;;;;2.10;1.55;;;;;;;16.16;50.40;102087.34;5010132;28;20018;-57
2021/03/02 02:49:38;;;;;;;2.38;1.77;;;;;;;16.13;50.49;102085.84;5005580;28;20022;-57
2021/03/02 02:52:04;;;;;;;2.58;1.50;;;;;;;16.08;50.30;102086.41;5025582;28;20084;-54
2021/03/02 02:54:29;;;;;;;3.63;1.85;;;;;;;16.07;50.41;102087.44;5027325;28;20107;-57
2021/03/02 02:56:55;;;;;;;2.35;1.60;;;;;;;16.06;50.53;102085.75;5030607;28;20028;-54
2021/03/02 02:59:22;;;;;;;2.70;1.55;;;;;;;16.01;50.54;102077.34;5030407;28;20039;-56
2021/03/02 03:01:52;;;;;;;2.53;1.92;;;;;;;16.00;50.61;102078.38;5027214;28;20472;-57
2021/03/02 03:04:20;;;;;;;2.45;1.35;;;;;;;15.99;50.37;102083.94;5030975;28;20040;-57
2021/03/02 03:06:46;;;;;;;1.77;1.38;;;;;;;15.98;50.55;102074.16;5011485;28;20049;-56
2021/03/02 03:09:12;;;;;;;1.58;1.35;;;;;;;15.97;50.33;102075.19;5027970;28;20068;-56
2021/03/02 03:11:41;;;;;;;2.17;1.45;;;;;;;15.95;50.37;102067.25;5030431;28;20028;-53
2021/03/02 03:14:06;;;;;;;3.28;1.80;;;;;;;15.95;50.21;102069.97;5030633;28;20029;-58
2021/03/02 03:16:32;;;;;;;2.67;1.45;;;;;;;15.93;50.08;102065.72;5031977;28;20022;-56
2021/03/02 03:18:58;;;;;;;2.85;1.65;;;;;;;15.91;50.29;102057.78;5034147;28;20112;-58
2021/03/02 03:21:24;;;;;;;3.63;1.70;;;;;;;15.92;50.25;102066.75;5033891;28;20384;-53
2021/03/02 03:23:50;;;;;;;1.90;1.60;;;;;;;15.89;50.40;102064.44;5034481;28;20098;-51
2021/03/02 03:26:16;;;;;;;1.63;1.48;;;;;;;15.86;50.31;102061.06;5034080;28;20133;-55
2021/03/02 03:28:42;;;;;;;1.38;1.27;;;;;;;15.84;50.29;102057.69;5032810;28;20120;-58
2021/03/02 03:31:09;;;;;;;1.70;1.35;;;;;;;15.85;50.39;102047.69;5032718;28;20033;-57
2021/03/02 03:33:35;;;;;;;1.77;1.40;;;;;;;15.81;50.09;102051.78;5033083;28;20025;-56
2021/03/02 03:36:01;;;;;;;2.78;1.80;;;;;;;15.77;50.39;102048.63;5033260;28;20393;-56
2021/03/02 03:38:26;;;;;;;2.22;1.67;;;;;;;15.78;50.48;102046.75;5033346;28;20025;-57
2021/03/02 03:40:52;;;;;;;1.80;1.48;;;;;;;15.75;50.26;102047.13;5033320;28;20029;-58
2021/03/02 03:43:17;;;;;;;1.92;1.30;;;;;;;15.71;50.40;102034.97;5032982;28;20053;-58
2021/03/02 03:45:43;;;;;;;2.25;1.73;;;;;;;15.73;50.07;102039.19;5032818;28;20064;-57
2021/03/02 03:48:09;;;;;;;2.15;1.30;;;;;;;15.67;50.22;102045.34;5033439;28;20018;-58
2021/03/02 03:50:34;;;;;;;2.42;1.52;;;;;;;15.67;50.33;102039.91;5033368;28;20107;-58
2021/03/02 03:53:01;;;;;;;1.95;1.45;;;;;;;15.65;50.42;102041.09;5030072;28;20033;-53
2021/03/02 03:55:30;;;;;;;2.65;1.50;;;;;;;15.64;50.41;102045.69;5033777;28;20068;-56
2021/03/02 03:57:56;;;;;;;1.57;1.47;;;;;;;15.60;50.18;102045.19;5032843;28;20029;-53
2021/03/02 04:00:21;;;;;;;2.50;1.33;;;;;;;15.57;50.22;102045.53;5033152;28;20029;-58
2021/03/02 04:02:47;;;;;;;3.03;1.63;;;;;;;15.60;50.37;102044.34;5032988;28;20515;-58
2021/03/02 04:05:13;;;;;;;4.70;1.67;;;;;;;15.59;50.01;102042.66;5033603;28;20033;-58
2021/03/02 04:07:39;;;;;;;1.30;1.10;;;;;;;15.57;49.93;102034.72;5032874;28;20037;-58
2021/03/02 04:10:07;;;;;;;1.73;1.58;;;;;;;15.56;49.87;102034.91;5033461;28;20025;-57
2021/03/02 04:12:43;;;;;;;2.83;1.20;;;;;;;15.55;50.08;102039.47;5031604;28;20037;-58
2021/03/02 04:15:10;;;;;;;1.77;1.30;;;;;;;15.53;50.17;102037.97;5032913;28;20049;-58
2021/03/02 04:17:36;;;;;;;2.15;1.30;;;;;;;15.50;50.26;102032.94;5031179;28;20060;-58
2021/03/02 04:20:03;;;;;;;2.08;1.13;;;;;;;15.46;49.93;102037.03;5033247;28;20291;-57
2021/03/02 04:22:31;;;;;;;2.03;1.27;;;;;;;15.46;50.08;102042.44;5032849;28;20029;-53
2021/03/02 04:24:56;;;;;;;1.85;1.20;;;;;;;15.42;50.03;102036.53;5033026;28;20076;-53
2021/03/02 04:27:22;;;;;;;2.30;1.58;;;;;;;15.42;50.15;102041.94;5032259;28;20465;-53
2021/03/02 04:29:47;;;;;;;1.58;1.48;;;;;;;15.39;50.08;102044.19;5026586;28;20024;-53
2021/03/02 04:32:13;;;;;;;2.63;1.40;;;;;;;15.36;49.93;102042.66;5016014;28;20030;-54
2021/03/02 04:34:38;;;;;;;1.88;1.15;;;;;;;15.35;50.20;102041.81;5032577;28;20021;-52
2021/03/02 04:37:04;;;;;;;1.30;1.20;;;;;;;15.35;50.03;102035.56;5032815;28;20113;-57
2021/03/02 04:39:30;;;;;;;1.45;1.20;;;;;;;15.32;50.08;102038.66;5032654;28;20476;-55
2021/03/02 04:41:55;;;;;;;1.45;1.13;;;;;;;15.29;50.22;102034.44;5032829;28;20040;-53
2021/03/02 04:44:21;;;;;;;1.70;1.35;;;;;;;15.27;50.18;102035.66;5032119;28;20112;-55
2021/03/02 04:46:46;;;;;;;1.10;1.00;;;;;;;15.27;50.16;102031.06;5031409;28;20071;-58
2021/03/02 04:49:12;;;;;;;1.15;1.05;;;;;;;15.25;50.05;102024.97;5018690;28;20067;-56
2021/03/02 04:51:37;;;;;;;2.83;1.20;;;;;;;15.24;49.95;102025.19;5024622;28;20048;-54
2021/03/02 04:54:04;;;;;;;1.58;1.15;;;;;;;15.24;50.21;102027.88;5027459;28;20026;-57
2021/03/02 04:56:29;;;;;;;2.10;1.10;;;;;;;15.22;50.21;102019.13;5031897;28;20526;-57
2021/03/02 04:58:55;;;;;;;2.05;1.42;;;;;;;15.19;50.09;102019.47;5029993;28;20030;-51
2021/03/02 05:01:20;;;;;;;2.20;1.05;;;;;;;15.19;50.14;102019.47;5032305;28;20029;-57
2021/03/02 05:03:46;;;;;;;1.85;1.00;;;;;;;15.16;49.98;102017.13;5031918;28;20027;-56
2021/03/02 05:06:12;;;;;;;1.10;0.85;;;;;;;15.14;50.19;102020.00;5031979;28;20026;-57
2021/03/02 05:08:37;;;;;;;1.05;0.85;;;;;;;15.12;50.20;102016.63;5032026;28;20040;-57
2021/03/02 05:11:03;;;;;;;2.60;1.25;;;;;;;15.10;50.00;102013.28;5031960;28;20036;-56
2021/03/02 05:13:28;;;;;;;1.40;1.10;;;;;;;15.07;49.92;102009.06;5031575;28;20022;-52
2021/03/02 05:15:54;;;;;;;1.73;1.13;;;;;;;15.06;50.05;102012.78;5031672;28;20419;-56
2021/03/02 05:18:20;;;;;;;1.55;1.15;;;;;;;15.07;50.15;102017.16;5030145;28;20057;-53
2021/03/02 05:20:45;;;;;;;1.30;1.13;;;;;;;15.05;50.02;102024.63;5031415;28;20040;-52
2021/03/02 05:23:11;;;;;;;1.42;0.85;;;;;;;15.04;49.80;102012.13;5032082;28;20030;-54
2021/03/02 05:25:37;;;;;;;0.93;0.73;;;;;;;15.02;50.11;102019.56;5031711;28;20065;-53
2021/03/02 05:28:02;;;;;;;1.70;1.05;;;;;;;15.02;49.97;102019.56;5030990;28;20461;-55
2021/03/02 05:30:28;;;;;;;1.88;1.10;;;;;;;15.01;49.89;102023.31;5031711;28;20025;-57
2021/03/02 05:32:54;;;;;;;1.15;0.88;;;;;;;14.97;50.20;102024.66;5030514;28;20121;-56
2021/03/02 05:35:19;;;;;;;1.20;0.98;;;;;;;14.97;50.12;102026.53;5031392;28;20231;-57
2021/03/02 05:37:45;;;;;;;1.02;0.77;;;;;;;14.95;49.98;102025.88;5030951;28;20358;-57
2021/03/02 05:40:12;;;;;;;0.95;0.90;;;;;;;14.92;50.06;102024.38;5031794;28;20060;-56
2021/03/02 05:42:37;;;;;;;0.80;0.70;;;;;;;14.92;49.98;102023.53;5030043;28;20017;-57
2021/03/02 05:45:03;;;;;;;1.20;0.70;;;;;;;14.91;49.96;102022.69;5044073;28;20353;-57
2021/03/02 05:47:29;;;;;;;1.23;0.85;;;;;;;14.88;50.00;102020.34;5050781;28;20029;-57
2021/03/02 05:49:55;;;;;;;1.38;1.10;;;;;;;14.88;49.91;102017.66;5051021;28;20029;-53
2021/03/02 05:52:21;;;;;;;0.70;0.70;;;;;;;14.86;50.00;102019.66;5051467;28;20394;-55
2021/03/02 05:54:47;;;;;;;1.27;0.98;;;;;;;14.83;49.86;102014.63;5051885;28;20021;-57
2021/03/02 05:57:12;;;;;;;1.08;0.88;;;;;;;14.80;49.92;102012.28;5050762;28;20450;-51
2021/03/02 05:59:38;;;;;;;0.90;0.63;;;;;;;14.80;50.08;102017.69;5051501;28;20029;-57
2021/03/02 06:02:03;;;;;;;1.15;1.02;;;;;;;14.76;50.05;102011.81;5049476;28;20033;-57
2021/03/02 06:04:29;;;;;;;0.77;0.77;;;;;;;14.76;50.09;102013.66;5049792;28;20029;-56
2021/03/02 06:07:02;;;;;;;2.20;1.30;;;;;;;14.77;50.00;102015.34;5050928;28;20028;-57
2021/03/02 06:09:28;;;;;;;1.17;0.85;;;;;;;14.75;49.97;102006.56;5051100;28;20021;-57
2021/03/02 06:12:01;;;;;;;1.27;0.90;;;;;;;14.75;49.92;102011.97;5049975;28;20025;-57
2021/03/02 06:14:28;;;;;;;0.93;0.90;;;;;;;14.70;50.13;102009.81;5023095;28;20244;-52
2021/03/02 06:16:54;;;;;;;1.20;1.10;;;;;;;14.67;49.96;102010.16;5025638;28;20033;-57
2021/03/02 06:19:39;;;;;;;1.55;1.10;;;;;;;14.70;49.89;102007.09;5030880;28;20033;-54
2021/03/02 06:22:04;;;;;;;3.20;0.90;;;;;;;14.64;50.06;102004.25;5030528;28;20484;-53
2021/03/02 06:24:34;;;;;;;1.00;0.90;;;;;;;14.65;49.96;102001.38;5015916;28;20056;-56
2021/03/02 06:27:11;;;;;;;0.60;0.60;;;;;;;14.63;50.15;102008.81;5025566;28;20240;-57
2021/03/02 06:29:37;;;;;;;0.80;0.80;;;;;;;14.59;49.98;102002.09;5030952;28;20029;-51
2021/03/02 06:32:03;;;;;;;0.70;0.70;;;;;;;14.58;50.22;102003.09;5030999;28;20108;-57
2021/03/02 06:34:28;;;;;;;1.00;0.90;;;;;;;14.59;50.06;102002.09;5030643;28;20033;-55
2021/03/02 06:36:54;;;;;;;1.27;1.08;;;;;;;14.56;50.00;102005.13;5031115;28;20033;-53
2021/03/02 06:39:31;;;;;;;0.68;0.65;;;;;;;14.57;49.94;102003.28;5030845;28;20480;-55
2021/03/02 06:42:10;;;;;;;0.82;0.82;;;;;;;14.55;49.98;102006.16;5030161;28;20033;-57
2021/03/02 06:44:36;;;;;;;0.70;0.70;;;;;;;14.57;49.80;102000.56;5011130;28;20056;-57
2021/03/02 06:47:02;;;;;;;0.90;0.90;;;;;;;14.51;50.15;102005.66;5010989;28;20091;-55
2021/03/02 06:49:38;;;;;;;0.68;0.65;;;;;;;14.52;50.00;102009.19;5012088;28;20528;-52
2021/03/02 06:52:16;;;;;;;1.77;0.93;;;;;;;14.55;50.10;102004.31;5014405;28;20050;-56
2021/03/02 06:54:41;;;;;;;1.42;1.00;;;;;;;14.59;50.13;102017.44;5014895;28;20163;-55
2021/03/02 06:57:07;;;;;;;0.68;0.60;;;;;;;14.65;49.90;102020.31;5017237;28;20459;-57
2021/03/02 06:59:32;;;;;;;1.40;0.80;;;;;;;14.74;49.95;102021.09;5034006;28;20018;-58
2021/03/02 07:01:58;;;;;;;1.75;0.60;;;;;;;14.79;50.20;102016.00;5032284;28;20037;-55
2021/03/02 07:04:28;;;;;;;3.55;0.80;;;;;;;14.87;50.33;102018.69;5034299;28;20025;-57
2021/03/02 07:06:56;;;;;;;2.63;0.75;;;;;;;14.97;49.96;102021.13;5034045;28;20022;-56
2021/03/02 07:09:21;;;;;;;0.93;0.70;;;;;;;15.08;49.58;102018.84;5033986;28;20038;-56
2021/03/02 07:11:47;;;;;;;0.40;0.40;;;;;;;15.20;49.52;102026.53;5033760;28;20048;-56
2021/03/02 07:14:13;;;;;;;1.45;0.73;;;;;;;15.31;49.08;102026.13;5034242;28;20492;-57
2021/03/02 07:16:42;;;;;;;1.15;0.60;;;;;;;15.43;48.88;102031.94;5031751;28;20113;-56
2021/03/02 07:19:08;;;;;;;1.00;0.60;;;;;;;15.53;48.79;102024.44;5032536;28;20021;-57
2021/03/02 07:21:36;;;;;;;0.30;0.30;;;;;;;15.64;48.72;102028.59;5032489;28;20025;-57
2021/03/02 07:24:04;;;;;;;0.50;0.50;;;;;;;15.74;48.57;102032.75;5033943;28;20025;-57
2021/03/02 07:26:31;;;;;;;0.50;0.50;;;;;;;15.86;48.50;102033.13;5033746;28;20025;-57
2021/03/02 07:28:57;;;;;;;0.47;0.47;;;;;;;15.95;48.04;102040.16;5033670;28;20120;-56
2021/03/02 07:31:22;;;;;;;0.50;0.50;;;;;;;16.07;48.06;102030.53;5032906;28;20025;-54
2021/03/02 07:33:50;;;;;;;0.50;0.50;;;;;;;16.17;47.96;102051.94;5033970;28;20110;-58
2021/03/02 07:36:16;;;;;;;0.60;0.50;;;;;;;16.28;47.77;102047.94;5033631;28;20033;-57
2021/03/02 07:38:41;;;;;;;0.77;0.57;;;;;;;16.37;47.47;102052.22;5033926;28;20046;-58
2021/03/02 07:41:07;;;;;;;0.40;0.40;;;;;;;16.44;47.54;102049.59;5033806;28;20371;-57
2021/03/02 07:43:35;;;;;;;0.70;0.50;;;;;;;16.53;47.42;102046.59;5034284;28;20028;-58
2021/03/02 07:46:22;;;;;;;0.57;0.52;;;;;;;16.60;47.51;102050.25;5032751;28;20509;-57
2021/03/02 07:48:47;;;;;;;0.70;0.38;;;;;;;16.72;47.22;102047.06;5032472;28;20468;-58
2021/03/02 07:51:18;;;;;;;1.23;0.40;;;;;;;16.80;47.08;102047.81;5033345;28;20136;-55
2021/03/02 07:53:44;;;;;;;0.63;0.57;;;;;;;16.86;47.01;102047.06;5033445;28;20080;-54
2021/03/02 07:56:19;;;;;;;0.80;0.63;;;;;;;16.93;47.12;102053.38;5029153;28;20100;-57
2021/03/02 07:59:05;;;;;;;0.55;0.55;;;;;;;17.03;46.97;102049.53;5012606;28;20040;-58
2021/03/02 08:01:32;;;;;;;0.60;0.50;;;;;;;17.09;46.73;102052.31;5031629;28;20033;-57
2021/03/02 08:04:14;;;;;;;2.17;0.60;;;;;;;17.15;46.83;102056.13;5033378;28;20128;-58
2021/03/02 08:06:44;;;;;;;0.55;0.52;;;;;;;17.18;46.86;102051.19;5032542;28;20036;-57
2021/03/02 08:09:26;;;;;;;0.38;0.35;;;;;;;17.25;46.84;102048.53;5033509;28;20055;-57
2021/03/02 08:11:54;;;;;;;0.40;0.40;;;;;;;17.30;46.74;102047.94;5032345;28;20110;-58
2021/03/02 08:14:22;;;;;;;0.40;0.40;;;;;;;17.36;46.65;102058.03;5032838;28;20029;-58
2021/03/02 08:16:52;;;;;;;0.60;0.60;;;;;;;17.42;46.60;102057.25;5031281;28;20191;-57
2021/03/02 08:19:28;;;;;;;;;;;;;;;17.52;46.42;102056.94;5033403;28;20461;-57
2021/03/02 08:21:53;;;;;;;0.70;0.57;;;;;;;17.56;46.46;102058.19;5031552;28;19909;-58
2021/03/02 08:24:19;;;;;;;1.30;0.63;;;;;;;17.61;46.44;102056.59;5033396;28;20029;-55
2021/03/02 08:26:44;;;;;;;0.50;0.50;;;;;;;17.70;46.32;102057.28;5032903;28;20592;-55
2021/03/02 08:29:15;;;;;;;0.90;0.55;;;;;;;17.78;46.48;102062.59;5032110;28;20100;-55
2021/03/02 08:31:41;;;;;;;;;;;;;;;17.87;46.50;102064.16;5031112;28;20160;-55
2021/03/02 08:34:08;;;;;;;0.52;0.40;;;;;;;18.04;47.38;102061.16;5032632;28;20003;-55
2021/03/02 08:36:35;;;;;;;0.47;0.32;;;;;;;18.02;47.08;102064.06;5032124;28;20037;-57
2021/03/02 08:39:00;;;;;;;0.50;0.50;;;;;;;18.01;47.27;102064.25;5032366;28;20499;-52
2021/03/02 08:41:28;;;;;;;0.70;0.50;;;;;;;17.97;47.67;102066.53;5031657;28;20022;-56
2021/03/02 08:43:53;;;;;;;0.38;0.38;;;;;;;17.96;47.99;102064.88;5032204;28;20103;-54
2021/03/02 08:46:29;;;;;;;0.50;0.50;;;;;;;17.98;48.38;102070.94;5032468;28;20104;-55
2021/03/02 08:48:55;;;;;;;0.50;0.40;;;;;;;17.94;48.21;102066.91;5032513;28;20049;-55
2021/03/02 08:51:22;;;;;;;0.40;0.40;;;;;;;17.90;48.09;102065.63;5039570;28;20055;-57
2021/03/02 08:53:49;;;;;;;1.38;0.57;;;;;;;17.86;47.94;102065.19;5039495;28;20104;-56
2021/03/02 08:56:15;;;;;;;0.73;0.40;;;;;;;17.84;48.03;102066.41;5037295;28;20395;-58
2021/03/02 08:58:42;;;;;;;0.40;0.40;;;;;;;17.81;47.91;102066.81;5046204;28;20077;-57
2021/03/02 09:01:10;;;;;;;0.85;0.45;;;;;;;17.78;47.90;102072.63;5040978;28;20028;-56
2021/03/02 09:03:37;;;;;;;0.40;0.32;;;;;;;17.76;47.95;102074.72;5042660;28;20029;-55
2021/03/02 09:06:11;;;;;;;1.58;0.70;;;;;;;17.73;47.86;102073.22;5042277;28;20080;-57
2021/03/02 09:08:51;;;;;;;0.50;0.35;;;;;;;17.69;47.91;102075.47;5021520;28;20384;-55
2021/03/02 09:11:19;;;;;;;0.50;0.30;;;;;;;17.65;48.03;102076.91;5027343;28;20311;-56
2021/03/02 09:13:45;;;;;;;0.30;0.30;;;;;;;17.63;48.21;102083.56;5031146;28;20052;-57
2021/03/02 09:16:21;;;;;;;0.40;0.30;;;;;;;17.60;48.18;102082.06;5031839;28;20053;-58
2021/03/02 09:18:58;;;;;;;0.80;0.30;;;;;;;17.57;48.03;102081.63;5032140;28;20033;-57
2021/03/02 09:21:24;;;;;;;0.55;0.55;;;;;;;17.51;48.28;102080.53;5031551;28;20025;-57
2021/03/02 09:23:50;;;;;;;1.75;0.30;;;;;;;17.50;48.05;102086.13;5032257;28;20036;-58
2021/03/02 09:26:20;;;;;;;1.67;0.35;;;;;;;17.46;48.34;102080.28;5011619;28;20380;-57
2021/03/02 09:28:51;;;;;;;1.70;0.47;;;;;;;17.43;48.29;102084.19;5025900;28;20090;-57
2021/03/02 09:31:16;;;;;;;0.38;0.38;;;;;;;17.41;48.29;102088.16;5014820;28;20526;-58
2021/03/02 09:33:42;;;;;;;0.50;0.50;;;;;;;17.36;48.33;102079.75;5031547;28;20029;-54
2021/03/02 09:36:08;;;;;;;0.93;0.35;;;;;;;17.34;48.41;102082.66;5031945;28;20468;-56
2021/03/02 09:38:34;;;;;;;0.75;0.50;;;;;;;17.31;48.47;102076.78;5014696;28;20045;-58
2021/03/02 09:41:00;;;;;;;1.17;0.50;;;;;;;17.28;48.59;102074.44;5028761;28;20410;-55
2021/03/02 09:43:38;;;;;;;0.40;0.40;;;;;;;17.27;48.32;102068.16;5025426;28;20491;-53
2021/03/02 09:46:05;;;;;;;1.05;0.40;;;;;;;17.24;48.56;102074.00;5014399;28;20614;-56
2021/03/02 09:48:42;;;;;;;0.77;0.40;;;;;;;17.24;48.31;102067.72;5031211;28;20056;-55
2021/03/02 09:51:27;;;;;;;1.23;0.60;;;;;;;17.21;48.21;102073.53;5031267;28;20577;-51
2021/03/02 09:53:53;;;;;;;1.73;0.40;;;;;;;17.15;47.94;102072.41;5031658;28;20056;-54
2021/03/02 09:56:20;;;;;;;1.02;0.70;;;;;;;17.10;48.05;102075.69;5022396;28;20498;-58
2021/03/02 09:58:47;;;;;;;0.40;0.40;;;;;;;17.07;47.76;102070.69;5020441;28;20026;-56
2021/03/02 10:01:13;;;;;;;0.80;0.45;;;;;;;17.06;47.86;102069.00;5029922;28;20053;-58
2021/03/02 10:03:38;;;;;;;4.22;0.47;;;;;;;17.12;48.89;102056.53;5035870;28;20075;-56
2021/03/02 10:06:05;;;;;;;1.25;0.55;;;;;;;17.08;48.50;102066.09;5030886;28;20025;-54
2021/03/02 10:08:41;;;;;;;6.22;1.15;;;;;;;17.07;48.59;102056.28;5028763;28;20105;-53
2021/03/02 10:11:14;;;;;;;1.23;0.52;;;;;;;17.08;48.55;102056.06;5031106;28;20087;-54
2021/03/02 10:13:40;;;;;;;2.22;0.50;;;;;;;17.07;48.77;102065.25;5039833;28;20403;-57
2021/03/02 10:16:17;;;;;;;2.45;0.40;;;;;;;17.12;48.71;102060.09;5016004;28;20061;-56
2021/03/02 10:18:46;;;;;;;2.47;0.45;;;;;;;17.18;48.79;102055.78;5047489;28;20025;-52
2021/03/02 10:21:12;;;;;;;1.60;0.30;;;;;;;17.38;48.58;102050.53;5033520;28;20112;-57
2021/03/02 10:23:49;;;;;;;2.10;0.60;;;;;;;17.43;48.61;102056.22;5030906;28;20121;-57
2021/03/02 10:26:27;;;;;;;2.83;0.57;;;;;;;17.49;49.09;102057.31;5035361;28;20029;-58
2021/03/02 10:28:53;;;;;;;0.77;0.30;;;;;;;17.59;48.86;102060.53;5036549;28;20377;-52
2021/03/02 10:31:19;;;;;;;1.13;0.55;;;;;;;17.73;48.80;102058.81;5036928;28;20031;-57
2021/03/02 10:33:45;;;;;;;0.65;0.50;;;;;;;17.77;48.84;102063.66;5034812;28;20403;-52
2021/03/02 10:36:30;;;;;;;2.58;0.50;;;;;;;17.86;48.66;102058.94;5034615;28;20037;-57
2021/03/02 10:38:57;;;;;;;1.67;0.30;;;;;;;17.91;48.89;102061.91;5034567;28;20063;-51
2021/03/02 10:41:24;;;;;;;6.30;0.30;;;;;;;18.00;48.70;102063.41;5034798;28;20026;-54
2021/03/02 10:43:50;;;;;;;6.47;0.50;;;;;;;18.05;48.51;102068.25;5034516;28;20384;-50
2021/03/02 10:46:16;;;;;;;0.85;0.40;;;;;;;18.12;48.34;102053.66;5034246;28;20029;-56
2021/03/02 10:48:43;;;;;;;2.75;0.52;;;;;;;18.13;48.41;102059.97;5034567;28;20022;-57
2021/03/02 10:51:08;;;;;;;1.42;0.22;;;;;;;18.14;48.26;102061.63;5034841;28;20503;-57
2021/03/02 10:53:34;;;;;;;3.28;0.47;;;;;;;18.14;48.14;102051.59;5033505;28;20044;-57
2021/03/02 10:55:59;;;;;;;1.90;0.30;;;;;;;18.16;48.14;102060.38;5034878;28;20030;-58
2021/03/02 10:58:25;;;;;;;5.00;0.40;;;;;;;18.16;48.11;102062.28;5015453;28;20034;-55
2021/03/02 11:00:52;;;;;;;0.90;0.38;;;;;;;18.17;48.18;102051.19;5014995;28;20034;-52
2021/03/02 11:03:18;;;;;;;2.53;0.52;;;;;;;18.19;47.97;102049.13;5015008;28;20125;-56
2021/03/02 11:05:43;;;;;;;3.40;0.65;;;;;;;18.20;48.01;102049.97;5014851;28;20030;-54
2021/03/02 11:08:09;;;;;;;0.32;0.32;;;;;;;18.19;48.03;102051.00;5014792;28;20050;-53
2021/03/02 11:10:34;;;;;;;1.17;0.40;;;;;;;18.19;48.01;102046.41;5011798;28;20072;-56
2021/03/02 11:13:00;;;;;;;2.30;0.40;;;;;;;18.18;48.06;102046.59;5022041;28;20060;-57
2021/03/02 11:15:26;;;;;;;1.80;0.55;;;;;;;18.17;47.89;102039.47;5032580;28;20135;-57
2021/03/02 11:17:51;;;;;;;0.38;0.28;;;;;;;18.17;47.89;102039.47;5034163;28;20032;-58
2021/03/02 11:20:17;;;;;;;1.13;0.35;;;;;;;18.17;47.77;102051.19;5034404;28;20025;-54
2021/03/02 11:22:43;;;;;;;2.75;0.40;;;;;;;18.17;47.99;102048.47;5034686;28;20021;-56
2021/03/02 11:25:09;;;;;;;0.40;0.38;;;;;;;18.17;47.89;102048.47;5030370;28;20026;-57
2021/03/02 11:27:35;;;;;;;2.20;0.60;;;;;;;18.17;47.76;102044.91;5020971;28;20124;-58